createdAt,value
2022-10-17T00:01:40.531Z,99854.44
2022-10-17T00:08:58.149Z,99843.88
2022-10-17T00:12:24.565Z,99860.25
2022-10-17T00:19:44.352Z,99838.13
2022-10-17T00:23:10.766Z,99848.63
2022-10-17T00:26:43.238Z,99838.78
2022-10-17T00:30:09.656Z,99839.63
2022-10-17T00:37:28.861Z,99839.88
2022-10-17T00:44:35.597Z,99863.56
2022-10-17T00:48:02.037Z,99861.09
2022-10-17T00:55:20.952Z,99861.13
2022-10-17T00:58:47.536Z,99860.94
2022-10-17T01:05:56.533Z,99870.97
2022-10-17T01:09:11.187Z,99877.91
2022-10-17T01:49:48.086Z,99929.34
2022-10-17T01:52:24.799Z,99920.75
2022-10-17T01:54:59.973Z,99921.41
2022-10-17T01:57:35.977Z,99931.44
2022-10-17T02:00:06.918Z,99936.91
2022-10-17T02:02:34.152Z,99937.16
2022-10-17T02:05:02.882Z,99919.75
2022-10-17T02:12:21.863Z,99931.91
2022-10-17T02:15:14.180Z,99914.94
2022-10-17T02:18:26.821Z,99911.81
2022-10-17T02:21:59.368Z,99918.53
2022-10-17T02:25:06.145Z,99921.03
2022-10-17T02:28:12.786Z,99917.03
2022-10-17T02:35:36.467Z,99909.06
2022-10-17T02:39:02.886Z,99917.25
2022-10-17T02:46:22.355Z,99915.09
2022-10-17T02:49:48.792Z,99929.78
2022-10-17T02:53:15.460Z,99939.88
2022-10-17T02:55:49.525Z,99924.38
2022-10-17T02:59:19.354Z,99932.56
2022-10-17T03:06:29.806Z,99929.69
2022-10-17T03:09:56.227Z,99926.94
2022-10-17T03:13:22.764Z,99924.22
2022-10-17T03:16:49.201Z,99931.78
2022-10-17T03:20:15.861Z,99923.56
2022-10-17T03:23:42.292Z,99944.50
2022-10-17T03:30:19.773Z,99939.03
2022-10-17T03:33:46.333Z,99943.22
2022-10-17T03:41:06.958Z,99940.91
2022-10-17T03:44:33.410Z,99942.53
2022-10-17T06:04:45.684Z,100211.09
2022-10-17T06:07:20.713Z,100206.84
2022-10-17T06:09:47.881Z,100214.19
2022-10-17T06:12:14.688Z,100230.06
2022-10-17T06:14:41.288Z,100236.13
2022-10-17T06:17:12.094Z,100224.03
2022-10-17T06:19:41.609Z,100244.31
2022-10-17T06:22:08.778Z,100227.34
2022-10-17T06:24:35.559Z,100230.69
2022-10-17T06:27:02.344Z,100221.06
2022-10-17T06:29:29.203Z,100240.13
2022-10-17T06:31:56.006Z,100255.19
2022-10-17T06:34:23.051Z,100240.75
2022-10-17T06:36:50.057Z,100265.44
2022-10-17T06:39:16.972Z,100268.38
2022-10-17T06:41:44.665Z,100276.34
2022-10-17T06:44:12.225Z,100288.94
2022-10-17T06:46:40.111Z,100284.13
2022-10-17T06:49:07.650Z,100283.50
2022-10-17T06:51:37.945Z,100290.97
2022-10-17T06:54:05.073Z,100288.25
2022-10-17T06:56:31.822Z,100304.22
2022-10-17T06:58:58.727Z,100315.31
2022-10-17T07:01:25.923Z,100317.56
2022-10-17T07:03:52.674Z,100328.84
2022-10-17T07:06:19.529Z,100339.06
2022-10-17T07:08:46.732Z,100337.66
2022-10-17T07:11:15.785Z,100351.09
2022-10-17T07:13:43.144Z,100365.19
2022-10-17T07:16:11.294Z,100370.34
2022-10-17T07:18:38.818Z,100365.72
2022-10-17T07:21:06.103Z,100381.50
2022-10-17T07:23:36.702Z,100391.19
2022-10-17T07:26:08.650Z,100413.81
2022-10-17T07:28:39.826Z,100420.97
2022-10-17T07:31:08.565Z,100430.25
2022-10-17T07:33:35.335Z,100436.34
2022-10-17T07:36:03.036Z,100461.72
2022-10-17T07:38:30.237Z,100460.69
2022-10-17T07:41:02.583Z,100452.81
2022-10-17T07:43:30.451Z,100465.84
2022-10-17T07:45:57.596Z,100480.78
2022-10-17T07:48:25.104Z,100467.66
2022-10-17T07:50:52.070Z,100491.06
2022-10-17T07:53:19.248Z,100461.66
2022-10-17T07:55:51.434Z,100487.94
2022-10-17T07:58:18.581Z,100495.59
2022-10-17T08:00:48.515Z,100478.00
2022-10-17T08:03:15.385Z,100506.94
2022-10-17T08:05:42.419Z,100476.75
2022-10-17T08:08:09.065Z,100486.63
2022-10-17T08:10:35.775Z,100486.81
2022-10-17T08:13:02.828Z,100501.97
2022-10-17T08:15:31.845Z,100501.69
2022-10-17T08:17:59.640Z,100512.47
2022-10-17T08:20:26.745Z,100523.28
2022-10-17T08:22:55.243Z,100537.06
2022-10-17T08:25:23.065Z,100524.69
2022-10-17T08:27:49.898Z,100541.16
2022-10-17T08:30:17.235Z,100554.69
2022-10-17T08:32:44.093Z,100560.63
2022-10-17T08:35:10.935Z,100568.03
2022-10-17T08:37:37.926Z,100564.91
2022-10-17T08:40:05.068Z,100581.28
2022-10-17T08:42:50.396Z,100600.34
2022-10-17T08:45:32.613Z,100619.72
2022-10-17T08:48:10.102Z,100605.31
2022-10-17T08:50:38.470Z,100629.03
2022-10-17T08:53:13.802Z,100624.91
2022-10-17T08:55:45.637Z,100654.44
2022-10-17T08:58:20.067Z,100661.13
2022-10-17T09:01:01.185Z,100671.63
2022-10-17T09:03:32.317Z,100677.84
2022-10-17T09:06:16.344Z,100661.06
2022-10-17T09:09:07.123Z,100680.44
2022-10-17T09:11:42.821Z,100714.13
2022-10-17T09:14:37.271Z,100706.16
2022-10-17T09:17:09.960Z,100693.81
2022-10-17T09:19:56.303Z,100695.78
2022-10-17T09:22:28.697Z,100693.09
2022-10-17T09:25:58.141Z,100707.69
2022-10-17T09:29:10.750Z,100715.41
2022-10-17T09:31:49.641Z,100745.72
2022-10-17T09:34:16.816Z,100732.72
2022-10-17T09:36:44.132Z,100749.00
2022-10-17T09:40:13.921Z,100749.84
2022-10-17T09:43:40.441Z,100751.41
2022-10-17T09:46:19.979Z,100750.19
2022-10-17T09:49:16.516Z,100767.44
2022-10-17T09:51:44.750Z,100788.16
2022-10-17T09:54:20.580Z,100788.38
2022-10-17T09:57:01.734Z,100796.66
2022-10-17T09:59:56.177Z,100824.22
2022-10-17T10:02:25.170Z,100821.19
2022-10-17T10:05:37.391Z,100816.72
2022-10-17T10:09:04.064Z,100837.88
2022-10-17T10:11:50.016Z,100846.34
2022-10-17T10:14:24.314Z,100834.84
2022-10-17T10:16:53.769Z,100844.66
2022-10-17T10:19:30.060Z,100865.94
2022-10-17T10:22:05.275Z,100897.38
2022-10-17T10:24:33.155Z,100888.38
2022-10-17T10:27:03.155Z,100880.66
2022-10-17T10:29:41.792Z,100895.16
2022-10-17T10:32:20.432Z,100894.50
2022-10-17T10:35:00.730Z,100897.50
2022-10-17T10:37:38.743Z,100931.38
2022-10-17T10:40:15.800Z,100926.66
2022-10-17T10:42:42.686Z,100935.41
2022-10-17T10:45:47.995Z,100934.84
2022-10-17T10:48:32.605Z,100950.84
2022-10-17T10:51:13.269Z,100956.06
2022-10-17T10:53:53.461Z,100977.59
2022-10-17T10:56:23.166Z,100996.25
2022-10-17T10:59:08.398Z,100980.19
2022-10-17T11:02:32.984Z,101010.47
2022-10-17T11:05:58.471Z,101005.00
2022-10-17T11:08:50.648Z,101022.22
2022-10-17T11:11:33.621Z,101027.09
2022-10-17T11:14:23.203Z,101028.69
2022-10-17T11:17:52.608Z,101031.81
2022-10-17T11:21:02.106Z,101048.00
2022-10-17T11:24:14.401Z,101069.56
2022-10-17T11:27:41.235Z,101063.03
2022-10-17T11:31:08.108Z,101059.88
2022-10-17T11:34:29.852Z,101083.72
2022-10-17T11:37:56.287Z,101073.81
2022-10-17T11:44:39.130Z,101098.72
2022-10-17T11:47:35.135Z,101089.69
2022-10-17T11:54:16.920Z,101105.25
2022-10-17T11:57:29.531Z,101114.03
2022-10-17T12:00:42.752Z,101111.28
2022-10-17T12:04:08.408Z,101143.09
2022-10-17T12:07:30.563Z,101141.34
2022-10-17T12:10:40.320Z,101135.38
2022-10-17T12:13:48.934Z,101138.31
2022-10-17T14:50:32.167Z,101434.34
2022-10-17T14:53:12.270Z,101464.94
2022-10-17T14:56:38.894Z,101469.91
2022-10-17T15:02:49.735Z,101490.47
2022-10-17T15:05:17.081Z,101482.88
2022-10-17T15:07:44.088Z,101479.69
2022-10-17T15:10:43.294Z,101503.59
2022-10-17T15:13:28.529Z,101499.91
2022-10-17T15:15:57.070Z,101500.63
2022-10-17T15:18:23.877Z,101519.06
2022-10-17T15:20:59.475Z,101512.97
2022-10-17T15:23:32.449Z,101524.97
2022-10-17T15:25:59.128Z,101533.81
2022-10-17T15:28:27.392Z,101527.91
2022-10-17T15:30:54.338Z,101535.47
2022-10-17T15:33:20.962Z,101545.56
2022-10-17T15:35:47.979Z,101550.53
2022-10-17T15:38:18.446Z,101546.41
2022-10-17T15:40:48.910Z,101551.81
2022-10-17T15:43:19.647Z,101562.91
2022-10-17T15:45:46.955Z,101566.22
2022-10-17T15:48:27.778Z,101571.72
2022-10-17T15:50:54.591Z,101589.91
2022-10-17T15:53:21.346Z,101592.19
2022-10-17T15:55:50.966Z,101598.16
2022-10-17T15:58:19.695Z,101604.78
2022-10-17T16:00:47.125Z,101598.69
2022-10-17T16:03:14.394Z,101604.97
2022-10-17T16:05:41.296Z,101606.72
2022-10-17T16:08:08.100Z,101604.75
2022-10-17T16:10:37.286Z,101608.91
2022-10-17T16:13:04.113Z,101620.63
2022-10-17T16:15:30.899Z,101623.72
2022-10-17T16:18:00.524Z,101629.78
2022-10-17T16:20:29.667Z,101646.25
2022-10-17T16:22:59.992Z,101639.44
2022-10-17T16:25:29.013Z,101652.50
2022-10-17T16:27:58.351Z,101663.81
2022-10-17T16:30:27.524Z,101667.94
2022-10-17T16:32:55.584Z,101672.78
2022-10-17T16:35:33.290Z,101678.81
2022-10-17T16:38:03.641Z,101694.41
2022-10-17T16:40:30.447Z,101693.06
2022-10-17T16:42:57.150Z,101698.41
2022-10-17T16:45:23.897Z,101697.09
2022-10-17T16:47:50.867Z,101704.00
2022-10-17T16:50:18.646Z,101707.25
2022-10-17T16:52:45.628Z,101708.84
2022-10-17T16:55:12.413Z,101717.78
2022-10-17T16:57:39.138Z,101715.94
2022-10-17T17:00:26.529Z,101727.81
2022-10-17T17:02:53.643Z,101726.94
2022-10-17T17:05:20.268Z,101732.28
2022-10-17T17:07:48.222Z,101740.53
2022-10-17T17:10:15.031Z,101747.75
2022-10-17T17:12:41.663Z,101763.84
2022-10-17T17:15:08.763Z,101760.78
2022-10-17T17:17:54.873Z,101766.09
2022-10-17T17:20:22.281Z,101770.22
2022-10-17T17:22:50.937Z,101775.38
2022-10-17T17:25:17.677Z,101783.41
2022-10-17T17:27:44.628Z,101798.47
2022-10-17T17:30:11.795Z,101809.06
2022-10-17T17:32:38.529Z,101811.63
2022-10-17T17:35:06.125Z,101822.25
2022-10-17T17:37:33.063Z,101822.75
2022-10-17T17:39:59.948Z,101828.75
2022-10-17T17:42:26.938Z,101842.94
2022-10-17T17:44:53.623Z,101850.78
2022-10-17T17:47:20.539Z,101856.94
2022-10-17T17:52:45.704Z,101869.72
2022-10-17T17:55:12.870Z,101876.41
2022-10-17T17:57:39.539Z,101887.84
2022-10-17T18:00:07.218Z,101885.56
2022-10-17T18:02:34.026Z,101892.56
2022-10-17T18:05:00.703Z,101899.22
2022-10-17T18:07:28.090Z,101898.69
2022-10-17T18:09:55.744Z,101905.53
2022-10-17T18:12:22.921Z,101914.19
2022-10-17T18:14:49.912Z,101922.72
2022-10-17T18:17:16.606Z,101924.06
2022-10-17T18:19:43.306Z,101932.63
2022-10-17T18:22:11.023Z,101936.69
2022-10-17T18:24:37.701Z,101939.03
2022-10-17T18:27:04.543Z,101950.47
2022-10-17T18:29:32.928Z,101943.44
2022-10-17T18:32:00.101Z,101946.50
2022-10-17T18:34:27.377Z,101953.31
2022-10-17T18:36:54.827Z,101976.50
2022-10-17T18:39:21.687Z,101971.38
2022-10-17T18:41:48.327Z,101970.81
2022-10-17T18:44:15.988Z,101968.41
2022-10-17T18:46:43.138Z,101976.94
2022-10-17T18:49:11.768Z,101989.03
2022-10-17T18:51:39.015Z,101987.63
2022-10-17T18:54:11.343Z,101989.63
2022-10-17T18:56:38.285Z,102001.06
2022-10-17T18:59:05.769Z,102003.09
2022-10-17T19:01:32.483Z,102002.53
2022-10-17T19:03:59.702Z,102004.88
2022-10-17T19:06:32.188Z,102016.84
2022-10-17T19:09:00.793Z,102021.56
2022-10-17T19:11:29.038Z,102024.47
2022-10-17T19:14:01.060Z,102031.94
2022-10-17T19:16:37.297Z,102032.56
2022-10-17T19:19:11.530Z,102034.06
2022-10-17T19:21:38.373Z,102049.75
2022-10-17T19:24:07.353Z,102050.91
2022-10-17T19:26:36.135Z,102046.59
2022-10-17T19:29:04.325Z,102049.94
2022-10-17T19:31:31.851Z,102044.78
2022-10-17T19:33:59.633Z,102048.53
2022-10-17T19:36:32.277Z,102060.63
2022-10-17T19:39:03.736Z,102069.97
2022-10-17T19:41:30.958Z,102065.66
2022-10-17T19:43:58.372Z,102068.84
2022-10-17T19:46:27.220Z,102076.13
2022-10-17T19:48:53.952Z,102087.38
2022-10-17T19:51:24.588Z,102099.44
2022-10-17T19:53:53.535Z,102106.94
2022-10-17T19:56:22.483Z,102101.75
2022-10-17T19:58:50.309Z,102107.50
2022-10-17T20:01:20.334Z,102108.53
2022-10-17T20:03:47.600Z,102121.44
2022-10-17T20:06:14.776Z,102126.34
2022-10-17T20:08:42.114Z,102143.00
2022-10-17T20:11:13.394Z,102157.94
2022-10-17T20:13:40.841Z,102158.41
2022-10-17T20:16:10.972Z,102170.91
2022-10-17T20:18:38.363Z,102169.94
2022-10-17T20:21:07.957Z,102178.53
2022-10-17T20:23:34.857Z,102177.81
2022-10-17T20:26:08.129Z,102176.38
2022-10-17T20:28:47.286Z,102181.41
2022-10-17T20:31:14.930Z,102178.25
2022-10-17T20:33:41.844Z,102184.56
2022-10-17T20:36:10.752Z,102191.16
2022-10-17T20:38:37.761Z,102197.91
2022-10-17T20:41:06.840Z,102202.63
2022-10-17T20:43:34.747Z,102208.97
2022-10-17T20:46:09.809Z,102212.69
2022-10-17T20:48:53.455Z,102214.56
2022-10-17T20:51:21.137Z,102218.28
2022-10-17T20:53:48.469Z,102224.88
2022-10-17T20:56:22.515Z,102237.06
2022-10-17T20:59:00.418Z,102243.38
2022-10-17T21:01:28.430Z,102253.25
2022-10-17T21:04:54.953Z,102255.97
2022-10-17T21:08:21.622Z,102259.44
2022-10-17T21:11:48.121Z,102268.91
2022-10-17T21:15:14.947Z,102265.16
2022-10-17T21:22:25.957Z,102283.03
2022-10-17T21:25:52.379Z,102276.41
2022-10-17T21:29:19.256Z,102273.13
2022-10-17T21:32:53.227Z,102283.69
2022-10-17T21:40:14.394Z,102293.81
2022-10-17T21:43:40.849Z,102304.41
2022-10-17T21:49:58.950Z,102320.00
2022-10-17T21:53:25.506Z,102319.16
2022-10-17T21:56:52.095Z,102322.22
2022-10-17T22:04:00.444Z,102330.47
2022-10-17T22:07:26.987Z,102339.34
2022-10-17T22:10:53.962Z,102337.13
2022-10-17T22:13:22.580Z,102347.94
2022-10-17T22:15:49.287Z,102350.78
2022-10-17T22:19:15.991Z,102363.06
2022-10-17T22:26:35.525Z,102356.69
2022-10-17T22:32:46.948Z,102372.72
2022-10-17T22:36:13.395Z,102371.25
2022-10-17T22:39:39.971Z,102374.22
2022-10-17T22:43:17.537Z,102379.81
2022-10-17T22:46:44.235Z,102375.81
2022-10-17T22:50:10.608Z,102379.91
2022-10-17T22:53:37.191Z,102378.66
2022-10-17T22:57:03.628Z,102382.03
2022-10-17T23:04:23.978Z,102381.41
2022-10-17T23:07:50.387Z,102386.09
2022-10-17T23:10:17.228Z,102389.16
2022-10-17T23:12:43.957Z,102384.31
2022-10-17T23:15:10.756Z,102381.59
2022-10-17T23:17:37.618Z,102379.28
2022-10-17T23:20:04.581Z,102374.94
2022-10-17T23:22:31.502Z,102379.81
2022-10-17T23:24:58.676Z,102377.31
2022-10-17T23:27:25.360Z,102395.50
2022-10-17T23:29:52.037Z,102396.59
2022-10-17T23:32:20.894Z,102396.59
2022-10-17T23:34:47.633Z,102398.59
2022-10-17T23:37:14.238Z,102390.59
2022-10-17T23:39:43.564Z,102392.53
2022-10-17T23:42:10.209Z,102395.41
2022-10-17T23:44:36.890Z,102397.25
2022-10-17T23:47:03.732Z,102388.22
2022-10-17T23:49:30.443Z,102390.34
2022-10-17T23:51:57.096Z,102390.72
2022-10-17T23:54:23.960Z,102402.94
2022-10-17T23:56:50.630Z,102394.56
2022-10-17T23:59:17.373Z,102404.59
